createdAt,value
2022-11-24T00:00:37.803Z,1000.76
2022-11-24T00:01:37.285Z,1000.78
2022-11-24T00:02:40.282Z,1000.81
2022-11-24T00:03:39.489Z,1000.80
2022-11-24T00:04:39.628Z,1000.81
2022-11-24T00:05:38.360Z,1000.78
2022-11-24T00:06:41.252Z,1000.81
2022-11-24T00:07:38.958Z,1000.84
2022-11-24T00:08:41.082Z,1000.87
2022-11-24T00:09:41.283Z,1000.89
2022-11-24T00:10:41.450Z,1000.88
2022-11-24T00:11:40.865Z,1000.86
2022-11-24T00:12:42.256Z,1000.85
2022-11-24T00:13:42.489Z,1000.82
2022-11-24T00:14:42.633Z,1000.88
2022-11-24T00:15:42.839Z,1000.93
2022-11-24T00:16:42.455Z,1000.92
2022-11-24T00:17:43.658Z,1000.89
2022-11-24T00:18:43.838Z,1000.95
2022-11-24T00:19:43.159Z,1000.99
2022-11-24T00:20:42.646Z,1001.02
2022-11-24T00:21:43.890Z,1001.01
2022-11-24T00:22:43.240Z,1001.06
2022-11-24T00:23:43.538Z,1001.09
2022-11-24T00:24:45.724Z,1001.16
2022-11-24T00:25:44.089Z,1001.18
2022-11-24T00:26:44.381Z,1001.15
2022-11-24T00:27:44.665Z,1001.17
2022-11-24T00:28:46.896Z,1001.15
2022-11-24T00:29:45.253Z,1001.15
2022-11-24T00:30:45.611Z,1001.13
2022-11-24T00:31:45.784Z,1001.09
2022-11-24T00:32:46.087Z,1001.05
2022-11-24T00:33:48.286Z,1001.03
2022-11-24T00:34:48.467Z,1001.05
2022-11-24T00:35:46.961Z,1001.03
2022-11-24T00:36:49.142Z,1000.99
2022-11-24T00:37:47.499Z,1000.97
2022-11-24T00:38:49.685Z,1000.94
2022-11-24T00:39:49.945Z,1001.02
2022-11-24T00:40:50.097Z,1001.00
2022-11-24T00:41:48.597Z,1001.00
2022-11-24T00:42:50.786Z,1001.06
2022-11-24T00:43:50.982Z,1001.05
2022-11-24T00:44:51.166Z,1001.04
2022-11-24T00:45:51.503Z,1001.03
2022-11-24T00:46:52.114Z,1001.02
2022-11-24T00:47:52.247Z,1001.06
2022-11-24T00:48:50.746Z,1001.05
2022-11-24T00:49:52.939Z,1001.05
2022-11-24T00:50:51.305Z,1001.05
2022-11-24T00:51:53.487Z,1001.06
2022-11-24T00:52:51.844Z,1001.03
2022-11-24T00:53:54.139Z,1001.05
2022-11-24T00:54:54.227Z,1001.10
2022-11-24T00:55:52.727Z,1001.10
2022-11-24T00:56:53.024Z,1001.13
2022-11-24T00:57:53.317Z,1001.15
2022-11-24T00:58:53.618Z,1001.17
2022-11-24T00:59:55.807Z,1001.15
2022-11-24T01:00:56.014Z,1001.16
2022-11-24T01:01:54.617Z,1001.16
2022-11-24T01:02:54.834Z,1001.20
2022-11-24T01:03:54.993Z,1001.18
2022-11-24T01:04:55.276Z,1001.20
2022-11-24T01:05:57.476Z,1001.21
2022-11-24T01:06:55.846Z,1001.26
2022-11-24T01:07:56.208Z,1001.25
2022-11-24T01:08:56.476Z,1001.26
2022-11-24T01:09:56.772Z,1001.32
2022-11-24T01:10:58.949Z,1001.29
2022-11-24T01:11:57.320Z,1001.32
2022-11-24T01:12:59.518Z,1001.36
2022-11-24T01:13:57.893Z,1001.35
2022-11-24T01:15:00.147Z,1001.41
2022-11-24T01:16:00.320Z,1001.42
2022-11-24T01:16:58.699Z,1001.45
2022-11-24T01:17:59.010Z,1001.51
2022-11-24T01:18:59.297Z,1001.48
2022-11-24T01:19:59.599Z,1001.49
2022-11-24T01:21:05.798Z,1001.49
2022-11-24T01:22:01.205Z,1001.47
2022-11-24T01:23:01.376Z,1001.54
2022-11-24T01:24:00.728Z,1001.52
2022-11-24T01:25:01.021Z,1001.49
2022-11-24T01:26:03.220Z,1001.51
2022-11-24T01:27:01.589Z,1001.42
2022-11-24T01:28:01.884Z,1001.47
2022-11-24T01:29:04.219Z,1001.40
2022-11-24T01:30:02.479Z,1001.42
2022-11-24T01:31:04.708Z,1001.43
2022-11-24T01:32:03.086Z,1001.44
2022-11-24T01:33:03.345Z,1001.43
2022-11-24T01:34:03.647Z,1001.42
2022-11-24T01:35:03.929Z,1001.45
2022-11-24T01:36:06.139Z,1001.42
2022-11-24T01:37:06.327Z,1001.46
2022-11-24T01:38:04.821Z,1001.43
2022-11-24T01:39:05.120Z,1001.48
2022-11-24T01:40:05.428Z,1001.50
2022-11-24T01:41:05.825Z,1001.51
2022-11-24T01:42:08.863Z,1001.51
2022-11-24T01:43:06.258Z,1001.53
2022-11-24T01:44:09.895Z,1001.54
2022-11-24T01:45:07.771Z,1001.51
2022-11-24T01:46:09.985Z,1001.49
2022-11-24T01:47:07.464Z,1001.43
2022-11-24T01:48:07.758Z,1001.53
2022-11-24T01:49:08.093Z,1001.46
2022-11-24T01:50:08.391Z,1001.48
2022-11-24T01:51:08.694Z,1001.46
2022-11-24T01:52:11.882Z,1001.43
2022-11-24T01:53:09.233Z,1001.43
2022-11-24T01:54:12.353Z,1001.45
2022-11-24T01:55:09.869Z,1001.48
2022-11-24T01:56:13.005Z,1001.52
2022-11-24T01:57:13.202Z,1001.56
2022-11-24T01:58:11.642Z,1001.59
2022-11-24T01:59:12.454Z,1001.58
2022-11-24T02:00:12.261Z,1001.60
2022-11-24T02:01:12.682Z,1001.57
2022-11-24T02:02:13.889Z,1001.59
2022-11-24T02:03:12.953Z,1001.59
2022-11-24T02:04:13.374Z,1001.57
2022-11-24T02:05:13.680Z,1001.61
2022-11-24T02:06:13.947Z,1001.64
2022-11-24T02:07:15.294Z,1001.66
2022-11-24T02:08:13.564Z,1001.68
2022-11-24T02:09:13.857Z,1001.67
2022-11-24T02:10:14.156Z,1001.70
2022-11-24T02:11:16.373Z,1001.71
2022-11-24T02:12:16.555Z,1001.75
2022-11-24T02:13:15.052Z,1001.73
2022-11-24T02:14:16.249Z,1001.77
2022-11-24T02:15:16.410Z,1001.78
2022-11-24T02:16:16.904Z,1001.75
2022-11-24T02:17:18.075Z,1001.81
2022-11-24T02:18:16.454Z,1001.82
2022-11-24T02:19:16.745Z,1001.79
2022-11-24T02:20:17.035Z,1001.79
2022-11-24T02:21:17.385Z,1001.80
2022-11-24T02:22:18.537Z,1001.83
2022-11-24T02:23:19.694Z,1001.80
2022-11-24T02:24:18.306Z,1001.78
2022-11-24T02:25:18.605Z,1001.77
2022-11-24T02:26:18.898Z,1001.83
2022-11-24T02:27:20.089Z,1001.87
2022-11-24T02:28:19.450Z,1001.84
2022-11-24T02:29:19.751Z,1001.83
2022-11-24T02:30:21.933Z,1001.83
2022-11-24T02:31:22.197Z,1001.86
2022-11-24T02:32:22.313Z,1001.80
2022-11-24T02:33:22.525Z,1001.85
2022-11-24T02:34:23.229Z,1001.85
2022-11-24T02:35:23.423Z,1001.85
2022-11-24T02:36:23.606Z,1001.87
2022-11-24T02:37:23.798Z,1001.86
2022-11-24T02:38:24.495Z,1001.82
2022-11-24T02:39:24.705Z,1001.85
2022-11-24T02:40:23.193Z,1001.85
2022-11-24T02:41:25.395Z,1001.82
2022-11-24T02:42:25.572Z,1001.85
2022-11-24T02:43:24.077Z,1001.81
2022-11-24T02:44:24.362Z,1001.83
2022-11-24T02:45:26.559Z,1001.85
2022-11-24T02:46:24.992Z,1001.88
2022-11-24T02:47:27.136Z,1001.94
2022-11-24T02:48:25.505Z,1001.91
2022-11-24T02:49:27.703Z,1001.90
2022-11-24T02:50:26.089Z,1001.93
2022-11-24T02:51:26.384Z,1001.93
2022-11-24T02:52:28.573Z,1001.98
2022-11-24T02:53:26.945Z,1001.97
2022-11-24T02:54:27.253Z,1001.96
2022-11-24T02:55:27.556Z,1001.96
2022-11-24T02:56:27.851Z,1001.94
2022-11-24T02:57:30.040Z,1001.95
2022-11-24T02:58:28.425Z,1001.92
2022-11-24T02:59:30.618Z,1001.98
2022-11-24T03:00:28.989Z,1001.96
2022-11-24T03:01:29.341Z,1001.96
2022-11-24T03:02:29.644Z,1002.03
2022-11-24T03:03:29.918Z,1002.03
2022-11-24T03:04:30.271Z,1002.05
2022-11-24T03:05:30.458Z,1002.03
2022-11-24T03:06:32.642Z,1002.05
2022-11-24T03:07:31.060Z,1002.06
2022-11-24T03:08:33.200Z,1002.11
2022-11-24T03:09:31.575Z,1002.10
2022-11-24T03:10:33.735Z,1002.11
2022-11-24T03:11:32.119Z,1002.14
2022-11-24T03:12:32.409Z,1002.07
2022-11-24T03:13:34.597Z,1002.08
2022-11-24T03:14:33.237Z,1002.07
2022-11-24T03:15:33.321Z,1002.08
2022-11-24T03:16:33.524Z,1002.02
2022-11-24T03:17:33.814Z,1002.04
2022-11-24T03:18:36.011Z,1002.01
2022-11-24T03:19:34.374Z,1002.00
2022-11-24T03:20:34.667Z,1001.99
2022-11-24T03:21:36.859Z,1002.02
2022-11-24T03:22:37.049Z,1002.01
2022-11-24T03:23:35.551Z,1002.03
2022-11-24T03:24:37.736Z,1002.01
2022-11-24T03:25:36.110Z,1002.08
2022-11-24T03:26:36.404Z,1002.08
2022-11-24T03:27:36.697Z,1002.12
2022-11-24T03:28:38.889Z,1002.13
2022-11-24T03:29:39.093Z,1002.15
2022-11-24T03:30:37.595Z,1002.18
2022-11-24T03:31:38.972Z,1002.19
2022-11-24T03:32:38.184Z,1002.23
2022-11-24T03:33:39.384Z,1002.21
2022-11-24T03:34:40.739Z,1002.27
2022-11-24T03:35:38.993Z,1002.30
2022-11-24T03:36:42.116Z,1002.32
2022-11-24T03:37:39.623Z,1002.30
2022-11-24T03:38:43.256Z,1002.33
2022-11-24T03:39:42.946Z,1002.33
2022-11-24T03:40:43.256Z,1002.31
2022-11-24T03:41:43.222Z,1002.31
2022-11-24T03:42:42.045Z,1002.31
2022-11-24T03:43:44.225Z,1002.30
2022-11-24T03:44:43.623Z,1002.26
2022-11-24T03:45:46.362Z,1002.29
2022-11-24T03:46:44.214Z,1002.30
2022-11-24T03:47:42.467Z,1002.33
2022-11-24T03:48:42.762Z,1002.36
2022-11-24T03:49:44.956Z,1002.40
2022-11-24T03:50:45.140Z,1002.47
2022-11-24T03:51:44.640Z,1002.47
2022-11-24T03:52:43.867Z,1002.45
2022-11-24T03:53:47.034Z,1002.49
2022-11-24T03:54:45.305Z,1002.54
2022-11-24T03:55:45.473Z,1002.48
2022-11-24T03:56:46.851Z,1002.50
2022-11-24T03:57:46.044Z,1002.53
2022-11-24T03:58:46.461Z,1002.50
2022-11-24T03:59:47.710Z,1002.54
2022-11-24T04:00:47.025Z,1002.54
2022-11-24T04:01:48.288Z,1002.54
2022-11-24T04:02:47.612Z,1002.57
2022-11-24T04:03:47.772Z,1002.63
2022-11-24T04:04:49.900Z,1002.61
2022-11-24T04:05:48.350Z,1002.66
2022-11-24T04:06:49.692Z,1002.68
2022-11-24T04:07:48.978Z,1002.67
2022-11-24T04:08:49.329Z,1002.66
2022-11-24T04:09:48.688Z,1002.66
2022-11-24T04:10:51.843Z,1002.68
2022-11-24T04:11:51.049Z,1002.63
2022-11-24T04:12:49.542Z,1002.68
2022-11-24T04:13:49.836Z,1002.63
2022-11-24T04:14:50.136Z,1002.69
2022-11-24T04:15:51.416Z,1002.69
2022-11-24T04:16:51.535Z,1002.70
2022-11-24T04:17:51.029Z,1002.67
2022-11-24T04:18:51.318Z,1002.69
2022-11-24T04:19:51.609Z,1002.68
2022-11-24T04:20:53.795Z,1002.68
2022-11-24T04:21:53.988Z,1002.72
2022-11-24T04:22:54.159Z,1002.70
2022-11-24T04:23:54.352Z,1002.70
2022-11-24T04:24:55.035Z,1002.77
2022-11-24T04:25:55.245Z,1002.78
2022-11-24T04:26:55.438Z,1002.80
2022-11-24T04:27:55.890Z,1002.77
2022-11-24T04:28:56.318Z,1002.76
2022-11-24T04:29:56.526Z,1002.80
2022-11-24T04:30:56.769Z,1002.77
2022-11-24T04:31:57.301Z,1002.76
2022-11-24T04:32:57.540Z,1002.78
2022-11-24T04:33:55.915Z,1002.72
2022-11-24T04:34:58.138Z,1002.77
2022-11-24T04:35:58.296Z,1002.75
2022-11-24T04:36:58.495Z,1002.73
2022-11-24T04:37:58.686Z,1002.78
2022-11-24T04:39:23.807Z,1002.78
2022-11-24T04:39:58.665Z,1002.82
2022-11-24T04:40:57.901Z,1002.83
2022-11-24T04:42:01.070Z,1002.83
2022-11-24T04:43:00.247Z,1002.87
2022-11-24T04:43:58.748Z,1002.89
2022-11-24T04:45:00.957Z,1002.98
2022-11-24T04:45:59.339Z,1002.98
2022-11-24T04:47:01.572Z,1002.92
2022-11-24T04:48:01.713Z,1002.99
2022-11-24T04:49:00.207Z,1002.96
2022-11-24T04:50:00.498Z,1002.99
2022-11-24T04:51:00.791Z,1002.99
2022-11-24T04:52:01.095Z,1002.97
2022-11-24T04:53:03.281Z,1002.99
2022-11-24T04:54:03.473Z,1002.98
2022-11-24T04:55:03.670Z,1003.00
2022-11-24T04:56:02.281Z,1003.05
2022-11-24T04:57:02.588Z,1003.06
2022-11-24T04:58:04.759Z,1003.07
2022-11-24T04:59:07.936Z,1003.10
2022-11-24T05:00:04.448Z,1003.17
2022-11-24T05:01:03.676Z,1003.14
2022-11-24T05:02:04.008Z,1003.15
2022-11-24T05:03:04.663Z,1003.18
2022-11-24T05:04:04.668Z,1003.21
2022-11-24T05:05:04.958Z,1003.24
2022-11-24T05:06:05.270Z,1003.26
2022-11-24T05:07:05.565Z,1003.19
2022-11-24T05:08:07.757Z,1003.23
2022-11-24T05:09:06.149Z,1003.27
2022-11-24T05:10:06.444Z,1003.25
2022-11-24T05:11:08.679Z,1003.25
2022-11-24T05:12:08.822Z,1003.28
2022-11-24T05:13:07.316Z,1003.31
2022-11-24T05:14:07.611Z,1003.35
2022-11-24T05:15:09.784Z,1003.30
2022-11-24T05:16:08.256Z,1003.32
2022-11-24T05:17:10.367Z,1003.32
2022-11-24T05:18:08.748Z,1003.32
2022-11-24T05:19:09.067Z,1003.34
2022-11-24T05:20:09.362Z,1003.38
2022-11-24T05:21:11.522Z,1003.37
2022-11-24T05:22:11.711Z,1003.41
2022-11-24T05:23:10.200Z,1003.42
2022-11-24T05:24:12.401Z,1003.41
2022-11-24T05:25:10.768Z,1003.41
2022-11-24T05:26:11.075Z,1003.43
2022-11-24T05:27:11.368Z,1003.45
2022-11-24T05:28:11.682Z,1003.49
2022-11-24T05:29:13.871Z,1003.50
2022-11-24T05:30:12.411Z,1003.46
2022-11-24T05:31:12.560Z,1003.50
2022-11-24T05:32:13.073Z,1003.52
2022-11-24T05:33:13.077Z,1003.51
2022-11-24T05:34:15.276Z,1003.51
2022-11-24T05:35:13.645Z,1003.51
2022-11-24T05:36:16.797Z,1003.50
2022-11-24T05:37:14.180Z,1003.54
2022-11-24T05:38:16.127Z,1003.53
2022-11-24T05:39:16.304Z,1003.50
2022-11-24T05:40:15.932Z,1003.53
2022-11-24T05:41:18.303Z,1003.54
2022-11-24T05:42:16.579Z,1003.52
2022-11-24T05:43:16.670Z,1003.57
2022-11-24T05:44:19.551Z,1003.58
2022-11-24T05:45:18.242Z,1003.55
2022-11-24T05:46:16.766Z,1003.63
2022-11-24T05:47:17.022Z,1003.65
2022-11-24T05:48:18.233Z,1003.62
2022-11-24T05:49:17.585Z,1003.64
2022-11-24T05:50:18.072Z,1003.66
2022-11-24T05:51:18.197Z,1003.65
2022-11-24T05:52:18.498Z,1003.70
2022-11-24T05:53:18.785Z,1003.70
2022-11-24T05:54:19.084Z,1003.74
2022-11-24T05:55:21.267Z,1003.74
2022-11-24T05:56:19.644Z,1003.67
2022-11-24T05:57:21.854Z,1003.70
2022-11-24T05:58:22.068Z,1003.71
2022-11-24T05:59:22.253Z,1003.75
2022-11-24T06:00:22.447Z,1003.81
2022-11-24T06:01:21.190Z,1003.80
2022-11-24T06:02:24.184Z,1003.79
2022-11-24T06:03:23.308Z,1003.80
2022-11-24T06:04:22.063Z,1003.85
2022-11-24T06:05:23.249Z,1003.82
2022-11-24T06:06:22.607Z,1003.85
2022-11-24T06:07:22.946Z,1003.87
2022-11-24T06:08:29.655Z,1003.86
2022-11-24T06:09:27.801Z,1003.90
2022-11-24T06:10:23.720Z,1003.94
2022-11-24T06:11:24.016Z,1003.92
2022-11-24T06:12:26.216Z,1003.93
2022-11-24T06:13:25.612Z,1003.94
2022-11-24T06:14:24.938Z,1003.93
2022-11-24T06:15:25.236Z,1003.95
2022-11-24T06:16:25.562Z,1003.95
2022-11-24T06:17:25.843Z,1003.92
2022-11-24T06:18:26.139Z,1003.98
2022-11-24T06:19:28.329Z,1003.95
2022-11-24T06:20:32.670Z,1003.92
2022-11-24T06:21:26.946Z,1003.92
2022-11-24T06:22:27.240Z,1003.90
2022-11-24T06:23:27.534Z,1003.93
2022-11-24T06:24:27.826Z,1003.91
2022-11-24T06:25:30.016Z,1003.89
2022-11-24T06:26:30.230Z,1003.92
2022-11-24T06:27:28.718Z,1003.94
2022-11-24T06:28:29.007Z,1003.99
2022-11-24T06:29:31.215Z,1004.01
2022-11-24T06:30:31.399Z,1004.03
2022-11-24T06:31:31.657Z,1004.04
2022-11-24T06:32:33.227Z,1004.04
2022-11-24T06:33:30.499Z,1004.00
2022-11-24T06:34:33.021Z,1004.02
2022-11-24T06:35:31.064Z,1004.04
2022-11-24T06:36:33.259Z,1004.02
2022-11-24T06:37:31.651Z,1004.05
2022-11-24T06:38:33.807Z,1004.11
2022-11-24T06:39:33.988Z,1004.10
2022-11-24T06:40:34.179Z,1004.13
2022-11-24T06:41:32.796Z,1004.16
2022-11-24T06:42:35.005Z,1004.15
2022-11-24T06:43:33.389Z,1004.14
2022-11-24T06:44:33.998Z,1004.17
2022-11-24T06:45:35.919Z,1004.21
2022-11-24T06:46:34.277Z,1004.20
2022-11-24T06:47:34.585Z,1004.25
2022-11-24T06:48:34.891Z,1004.22
2022-11-24T06:49:37.080Z,1004.26
2022-11-24T06:50:35.460Z,1004.26
2022-11-24T06:51:36.724Z,1004.30
2022-11-24T06:52:36.085Z,1004.33
2022-11-24T06:53:36.392Z,1004.36
2022-11-24T06:54:36.982Z,1004.38
2022-11-24T06:55:38.892Z,1004.44
2022-11-24T06:56:37.275Z,1004.41
2022-11-24T06:57:37.592Z,1004.44
2022-11-24T06:58:37.895Z,1004.48
2022-11-24T06:59:40.092Z,1004.51
2022-11-24T07:00:39.341Z,1004.54
2022-11-24T07:01:38.877Z,1004.54
2022-11-24T07:02:45.502Z,1004.49
2022-11-24T07:03:40.369Z,1004.47
2022-11-24T07:04:41.560Z,1004.51
2022-11-24T07:05:39.971Z,1004.51
2022-11-24T07:06:43.144Z,1004.51
2022-11-24T07:07:40.612Z,1004.54
2022-11-24T07:08:40.875Z,1004.51
2022-11-24T07:09:43.071Z,1004.52
2022-11-24T07:10:41.463Z,1004.55
2022-11-24T07:11:41.780Z,1004.60
2022-11-24T07:12:42.109Z,1004.55
2022-11-24T07:13:42.419Z,1004.59
2022-11-24T07:14:44.609Z,1004.63
2022-11-24T07:15:43.005Z,1004.63
2022-11-24T07:16:43.398Z,1004.64
2022-11-24T07:17:45.489Z,1004.66
2022-11-24T07:18:43.885Z,1004.68
2022-11-24T07:19:46.069Z,1004.71
2022-11-24T07:20:44.461Z,1004.77
2022-11-24T07:21:45.792Z,1004.72
2022-11-24T07:22:45.043Z,1004.71
2022-11-24T07:23:47.245Z,1004.72
2022-11-24T07:24:45.632Z,1004.73
2022-11-24T07:25:45.955Z,1004.78
2022-11-24T07:26:46.274Z,1004.76
2022-11-24T07:27:49.923Z,1004.79
2022-11-24T07:28:49.617Z,1004.79
2022-11-24T07:29:47.965Z,1004.83
2022-11-24T07:30:48.382Z,1004.83
2022-11-24T07:31:48.819Z,1004.82
2022-11-24T07:32:48.031Z,1004.82
2022-11-24T07:33:48.358Z,1004.82
2022-11-24T07:34:50.531Z,1004.86
2022-11-24T07:35:48.932Z,1004.81
2022-11-24T07:36:49.261Z,1004.83
2022-11-24T07:37:49.572Z,1004.85
2022-11-24T07:38:52.719Z,1004.88
2022-11-24T07:39:52.908Z,1004.88
2022-11-24T07:40:53.122Z,1004.92
2022-11-24T07:41:53.284Z,1004.96
2022-11-24T07:42:51.834Z,1004.98
2022-11-24T07:43:52.175Z,1004.99
2022-11-24T07:44:53.399Z,1005.01
2022-11-24T07:45:53.619Z,1005.02
2022-11-24T07:46:53.780Z,1005.04
2022-11-24T07:47:53.377Z,1005.07
2022-11-24T07:48:53.562Z,1005.08
2022-11-24T07:49:53.979Z,1005.07
2022-11-24T07:50:56.130Z,1005.12
2022-11-24T07:51:55.554Z,1005.15
2022-11-24T07:52:53.941Z,1005.18
2022-11-24T07:53:54.492Z,1005.20
2022-11-24T07:54:55.215Z,1005.22
2022-11-24T07:55:54.873Z,1005.21
2022-11-24T07:56:55.093Z,1005.20
2022-11-24T07:57:55.430Z,1005.22
2022-11-24T07:58:57.613Z,1005.21
2022-11-24T07:59:56.027Z,1005.23
2022-11-24T08:00:56.368Z,1005.25
2022-11-24T08:01:56.735Z,1005.22
2022-11-24T08:02:59.684Z,1005.22
2022-11-24T08:03:58.939Z,1005.30
2022-11-24T08:04:57.682Z,1005.31
2022-11-24T08:06:23.105Z,1005.31
2022-11-24T08:07:01.209Z,1005.28
2022-11-24T08:08:00.405Z,1005.33
2022-11-24T08:09:00.596Z,1005.32
2022-11-24T08:10:00.801Z,1005.35
2022-11-24T08:11:01.486Z,1005.35
2022-11-24T08:12:01.697Z,1005.38
2022-11-24T08:13:01.865Z,1005.42
2022-11-24T08:14:02.075Z,1005.49
2022-11-24T08:15:06.590Z,1005.45
2022-11-24T08:16:03.953Z,1005.42
2022-11-24T08:17:03.187Z,1005.43
2022-11-24T08:18:03.319Z,1005.46
2022-11-24T08:19:03.501Z,1005.50
2022-11-24T08:20:04.196Z,1005.42
2022-11-24T08:21:02.604Z,1005.49
2022-11-24T08:22:04.798Z,1005.48
2022-11-24T08:23:03.222Z,1005.51
2022-11-24T08:24:03.537Z,1005.53
2022-11-24T08:25:03.881Z,1005.52
2022-11-24T08:26:06.170Z,1005.56
2022-11-24T08:27:06.355Z,1005.52
2022-11-24T08:28:04.774Z,1005.56
2022-11-24T08:29:05.112Z,1005.50
2022-11-24T08:30:05.474Z,1005.57
2022-11-24T08:31:07.634Z,1005.51
2022-11-24T08:32:06.058Z,1005.51
2022-11-24T08:33:08.124Z,1005.51
2022-11-24T08:34:08.316Z,1005.55
2022-11-24T08:35:14.093Z,1005.57
2022-11-24T08:36:08.188Z,1005.57
2022-11-24T08:37:09.364Z,1005.58
2022-11-24T08:38:09.561Z,1005.53
2022-11-24T08:39:11.198Z,1005.53
2022-11-24T08:40:08.378Z,1005.52
2022-11-24T08:41:08.769Z,1005.56
2022-11-24T08:42:08.987Z,1005.56
2022-11-24T08:43:09.319Z,1005.61
2022-11-24T08:44:11.509Z,1005.57
2022-11-24T08:45:20.450Z,1005.57
2022-11-24T08:46:11.345Z,1005.57
2022-11-24T08:47:12.428Z,1005.61
2022-11-24T08:48:12.620Z,1005.60
2022-11-24T08:49:12.820Z,1005.57
2022-11-24T08:50:11.487Z,1005.64
2022-11-24T08:51:11.823Z,1005.60
2022-11-24T08:52:12.160Z,1005.57
2022-11-24T08:53:12.499Z,1005.60
2022-11-24T08:54:16.146Z,1005.63
2022-11-24T08:55:13.061Z,1005.60
2022-11-24T08:56:13.397Z,1005.64
2022-11-24T08:57:17.282Z,1005.62
2022-11-24T08:58:15.064Z,1005.64
2022-11-24T08:59:14.397Z,1005.64
2022-11-24T09:00:16.535Z,1005.66
2022-11-24T09:01:15.035Z,1005.66
2022-11-24T09:02:15.265Z,1005.71
2022-11-24T09:03:15.597Z,1005.72
2022-11-24T09:04:15.989Z,1005.75
2022-11-24T09:05:50.270Z,1005.81
2022-11-24T09:06:17.447Z,1005.82
2022-11-24T09:07:16.772Z,1005.87
2022-11-24T09:08:17.062Z,1005.86
2022-11-24T09:09:19.239Z,1005.86
2022-11-24T09:10:17.814Z,1005.85
2022-11-24T09:11:21.272Z,1005.92
2022-11-24T09:12:18.193Z,1005.92
2022-11-24T09:13:21.305Z,1005.96
2022-11-24T09:14:21.501Z,1005.92
2022-11-24T09:15:21.060Z,1005.95
2022-11-24T09:16:19.509Z,1005.89
2022-11-24T09:17:19.726Z,1005.93
2022-11-24T09:18:20.061Z,1005.96
2022-11-24T09:19:20.268Z,1005.90
2022-11-24T09:20:22.454Z,1005.93
2022-11-24T09:21:21.313Z,1005.91
2022-11-24T09:22:21.197Z,1005.91
2022-11-24T09:23:24.336Z,1005.89
2022-11-24T09:24:24.532Z,1005.94
2022-11-24T09:25:23.767Z,1005.96
2022-11-24T09:26:23.419Z,1005.94
2022-11-24T09:27:23.238Z,1005.97
2022-11-24T09:28:23.994Z,1005.96
2022-11-24T09:29:25.349Z,1005.97
2022-11-24T09:30:25.554Z,1006.02
2022-11-24T09:31:25.839Z,1006.04
2022-11-24T09:32:25.154Z,1006.10
2022-11-24T09:33:26.384Z,1006.07
2022-11-24T09:34:24.792Z,1006.11
2022-11-24T09:35:25.132Z,1006.19
2022-11-24T09:36:26.325Z,1006.22
2022-11-24T09:37:29.607Z,1006.20
2022-11-24T09:38:27.075Z,1006.18
2022-11-24T09:39:28.256Z,1006.16
2022-11-24T09:40:27.451Z,1006.21
2022-11-24T09:41:26.994Z,1006.23
2022-11-24T09:42:28.030Z,1006.22
2022-11-24T09:43:28.388Z,1006.23
2022-11-24T09:44:28.646Z,1006.21
2022-11-24T09:45:57.111Z,1006.21
2022-11-24T09:46:29.430Z,1006.25
2022-11-24T09:47:28.667Z,1006.15
2022-11-24T09:48:28.884Z,1006.18
2022-11-24T09:49:31.071Z,1006.17
2022-11-24T09:50:31.367Z,1006.14
2022-11-24T09:51:29.764Z,1006.17
2022-11-24T09:52:30.967Z,1006.22
2022-11-24T09:53:30.361Z,1006.20
2022-11-24T09:54:30.708Z,1006.18
2022-11-24T09:55:32.904Z,1006.20
2022-11-24T09:56:33.096Z,1006.17
2022-11-24T09:57:37.268Z,1006.23
2022-11-24T09:58:33.497Z,1006.21
2022-11-24T09:59:34.014Z,1006.19
2022-11-24T10:00:34.348Z,1006.28
2022-11-24T10:01:34.682Z,1006.25
2022-11-24T10:02:34.717Z,1006.29
2022-11-24T10:03:34.922Z,1006.32
2022-11-24T10:04:35.220Z,1006.30
2022-11-24T10:05:35.285Z,1006.35
2022-11-24T10:06:35.978Z,1006.31
2022-11-24T10:07:36.215Z,1006.36
2022-11-24T10:08:36.367Z,1006.33
2022-11-24T10:09:36.833Z,1006.36
2022-11-24T10:10:35.349Z,1006.32
2022-11-24T10:11:37.511Z,1006.38
2022-11-24T10:12:35.935Z,1006.33
2022-11-24T10:13:38.097Z,1006.39
2022-11-24T10:14:36.381Z,1006.40
2022-11-24T10:15:40.119Z,1006.45
2022-11-24T10:16:37.061Z,1006.45
2022-11-24T10:17:39.289Z,1006.49
2022-11-24T10:18:39.399Z,1006.47
2022-11-24T10:19:37.996Z,1006.50
2022-11-24T10:20:40.128Z,1006.49
2022-11-24T10:21:38.563Z,1006.52
2022-11-24T10:22:38.769Z,1006.52
2022-11-24T10:23:40.108Z,1006.53
2022-11-24T10:24:39.404Z,1006.54
2022-11-24T10:25:41.622Z,1006.51
2022-11-24T10:26:40.028Z,1006.56
2022-11-24T10:27:40.422Z,1006.57
2022-11-24T10:28:40.707Z,1006.57
2022-11-24T10:29:42.899Z,1006.61
2022-11-24T10:30:43.134Z,1006.60
2022-11-24T10:31:41.660Z,1006.62
2022-11-24T10:32:44.001Z,1006.57
2022-11-24T10:33:42.273Z,1006.58
2022-11-24T10:34:42.621Z,1006.57
2022-11-24T10:35:44.798Z,1006.62
2022-11-24T10:36:43.210Z,1006.64
2022-11-24T10:37:43.553Z,1006.62
2022-11-24T10:38:43.888Z,1006.65
2022-11-24T10:39:46.070Z,1006.65
2022-11-24T10:40:59.986Z,1006.65
2022-11-24T10:41:45.816Z,1006.64
2022-11-24T10:42:45.090Z,1006.68
2022-11-24T10:43:45.442Z,1006.73
2022-11-24T10:44:45.652Z,1006.69
2022-11-24T10:45:47.943Z,1006.71
2022-11-24T10:46:48.083Z,1006.74
2022-11-24T10:47:46.593Z,1006.74
2022-11-24T10:48:48.772Z,1006.75
2022-11-24T10:49:47.180Z,1006.76
2022-11-24T10:50:49.366Z,1006.72
2022-11-24T10:51:48.191Z,1006.72
2022-11-24T10:52:50.944Z,1006.69
2022-11-24T10:53:51.135Z,1006.72
2022-11-24T10:54:48.766Z,1006.75
2022-11-24T10:55:50.875Z,1006.75
2022-11-24T10:56:49.292Z,1006.78
2022-11-24T10:57:51.476Z,1006.76
2022-11-24T10:58:49.892Z,1006.78
2022-11-24T10:59:50.121Z,1006.80
2022-11-24T11:00:52.313Z,1006.80
2022-11-24T11:01:50.829Z,1006.85
2022-11-24T11:02:50.984Z,1006.80
2022-11-24T11:03:51.208Z,1006.79
2022-11-24T11:04:51.421Z,1006.85
2022-11-24T11:05:53.612Z,1006.84
2022-11-24T11:06:52.023Z,1006.85
2022-11-24T11:07:52.422Z,1006.86
2022-11-24T11:08:52.597Z,1006.89
2022-11-24T11:09:54.783Z,1006.90
2022-11-24T11:10:53.199Z,1006.91
2022-11-24T11:11:53.554Z,1006.87
2022-11-24T11:12:53.780Z,1006.89
2022-11-24T11:13:59.777Z,1006.90
2022-11-24T11:14:57.295Z,1006.89
2022-11-24T11:15:56.549Z,1006.88
2022-11-24T11:16:55.864Z,1006.89
2022-11-24T11:17:56.224Z,1006.96
2022-11-24T11:18:56.436Z,1006.99
2022-11-24T11:20:02.038Z,1006.94
2022-11-24T11:20:59.028Z,1006.94
2022-11-24T11:21:56.527Z,1006.96
2022-11-24T11:22:56.864Z,1006.96
2022-11-24T11:23:59.056Z,1006.98
2022-11-24T11:24:59.242Z,1007.00
2022-11-24T11:25:59.428Z,1007.00
2022-11-24T11:26:59.004Z,1007.04
2022-11-24T11:28:04.151Z,1006.99
2022-11-24T11:31:14.407Z,1007.02
2022-11-24T11:31:19.715Z,1007.01
2022-11-24T11:34:06.353Z,1007.06
2022-11-24T11:35:03.175Z,1007.02
2022-11-24T11:36:02.339Z,1007.04
2022-11-24T11:37:00.757Z,1007.10
2022-11-24T11:38:02.937Z,1007.08
2022-11-24T11:39:03.132Z,1007.08
2022-11-24T11:40:03.316Z,1007.08
2022-11-24T11:41:03.506Z,1007.06
2022-11-24T11:42:04.177Z,1007.06
2022-11-24T11:43:04.358Z,1007.03
2022-11-24T11:44:04.523Z,1007.07
2022-11-24T11:45:04.679Z,1007.11
2022-11-24T11:46:05.514Z,1007.16
2022-11-24T11:47:03.775Z,1007.16
2022-11-24T11:48:04.920Z,1007.14
2022-11-24T11:49:04.307Z,1007.13
2022-11-24T11:50:04.653Z,1007.12
2022-11-24T11:51:22.783Z,1007.14
2022-11-24T11:52:06.284Z,1007.17
2022-11-24T11:53:07.467Z,1007.20
2022-11-24T11:54:08.010Z,1007.18
2022-11-24T11:55:07.845Z,1007.19
2022-11-24T11:56:08.029Z,1007.17
2022-11-24T11:57:08.731Z,1007.19
2022-11-24T11:58:08.931Z,1007.20
2022-11-24T11:59:09.115Z,1007.24
2022-11-24T12:00:09.360Z,1007.21
2022-11-24T12:01:09.544Z,1007.30
2022-11-24T12:02:10.335Z,1007.30
2022-11-24T12:03:08.690Z,1007.30
2022-11-24T12:04:10.838Z,1007.33
2022-11-24T12:05:09.193Z,1007.36
2022-11-24T12:06:09.441Z,1007.36
2022-11-24T12:07:11.652Z,1007.37
2022-11-24T12:08:12.504Z,1007.38
2022-11-24T12:09:20.258Z,1007.45
2022-11-24T12:10:11.537Z,1007.42
2022-11-24T12:11:12.721Z,1007.42
2022-11-24T12:12:11.135Z,1007.40